Hay River, Canada
Current Conditions -  °F | °C
As of 9:13 PM on Sunday 25 Jan 2015 (Local Time) from CYHY Reporting Station
Broken Clouds Broken Clouds  
Wind Chill: -3°   Ceiling: 3500
Heat Index:   Visibility: 15mi
Dew Point:   Wind: 6mph
Humidity: 85%   Direction: 230°SW
Pressure: 29.72"   Gusts: NA
Location:  60.82°N, 115.78°W
Report Text: CYHY 260413Z 23005KT 15SM FEW009 BKN035 M14/M16 A2972 RMK SF2SC5 FROIN SLP080
Loading
Personal Weather Stations






























Interactive Weather Map New forecast layout! Learn more

10-Day Weather Forecast

Advertisements
Track Severe Weather on mobile